sensor_id;sensor_type;location;lat;lon;timestamp;pressure;altitude;pressure_sealevel;temperature;humidity
10014;BME280;45684;48.358;10.746;2023-02-12T09:40:34;98162.94;;;5.60;100.00
10014;BME280;45684;48.358;10.746;2023-02-12T09:43:13;98166.53;;;5.66;100.00
10014;BME280;45684;48.358;10.746;2023-02-12T09:45:52;98162.66;;;5.73;100.00
10014;BME280;45684;48.358;10.746;2023-02-12T09:48:38;98168.53;;;5.70;100.00
10014;BME280;45684;48.358;10.746;2023-02-12T09:51:12;98162.81;;;5.78;100.00
10014;BME280;45684;48.358;10.746;2023-02-12T09:53:44;98171.88;;;5.77;100.00
10014;BME280;45684;48.358;10.746;2023-02-12T09:56:20;98166.16;;;5.85;100.00
10014;BME280;45684;48.358;10.746;2023-02-12T09:58:57;98167.72;;;5.93;100.00
10014;BME280;45684;48.358;10.746;2023-02-12T10:01:34;98174.25;;;5.97;100.00
10014;BME280;45684;48.358;10.746;2023-02-12T10:04:03;98175.97;;;6.03;100.00
10014;BME280;45684;48.358;10.746;2023-02-12T10:06:35;98179.31;;;6.10;100.00
10014;BME280;45684;48.358;10.746;2023-02-12T10:09:29;98166.34;;;6.19;100.00
10014;BME280;45684;48.358;10.746;2023-02-12T10:12:09;98182.00;;;6.10;100.00
10014;BME280;45684;48.358;10.746;2023-02-12T10:15:00;98175.81;;;6.22;100.00
10014;BME280;45684;48.358;10.746;2023-02-12T10:17:39;98172.97;;;6.28;100.00
10014;BME280;45684;48.358;10.746;2023-02-12T10:20:43;98172.59;;;6.36;100.00
10014;BME280;45684;48.358;10.746;2023-02-12T10:23:24;98182.47;;;6.48;100.00
10014;BME280;45684;48.358;10.746;2023-02-12T10:25:55;98175.56;;;6.52;100.00
10014;BME280;45684;48.358;10.746;2023-02-12T10:28:29;98172.75;;;6.58;100.00
10014;BME280;45684;48.358;10.746;2023-02-12T10:30:59;98171.44;;;6.61;100.00
10014;BME280;45684;48.358;10.746;2023-02-12T10:33:32;98170.25;;;6.69;100.00
10014;BME280;45684;48.358;10.746;2023-02-12T10:36:15;98171.16;;;6.74;100.00
10014;BME280;45684;48.358;10.746;2023-02-12T10:38:48;98170.28;;;6.85;100.00
10014;BME280;45684;48.358;10.746;2023-02-12T10:41:17;98165.91;;;6.96;100.00
10014;BME280;45684;48.358;10.746;2023-02-12T10:43:46;98168.50;;;6.91;100.00
10014;BME280;45684;48.358;10.746;2023-02-12T10:46:15;98162.06;;;6.92;100.00
10014;BME280;45684;48.358;10.746;2023-02-12T10:48:48;98157.81;;;6.96;100.00
10014;BME280;45684;48.358;10.746;2023-02-12T10:51:33;98158.72;;;7.02;100.00
10014;BME280;45684;48.358;10.746;2023-02-12T10:54:41;98165.25;;;7.06;100.00
10014;BME280;45684;48.358;10.746;2023-02-12T10:57:15;98161.81;;;6.94;100.00
10014;BME280;45684;48.358;10.746;2023-02-12T10:59:46;98167.34;;;7.04;100.00
10014;BME280;45684;48.358;10.746;2023-02-12T11:02:21;98172.34;;;7.12;100.00
10014;BME280;45684;48.358;10.746;2023-02-12T11:04:52;98173.66;;;7.09;100.00
10014;BME280;45684;48.358;10.746;2023-02-12T11:07:28;98165.16;;;7.01;100.00
10014;BME280;45684;48.358;10.746;2023-02-12T11:10:19;98170.94;;;6.93;100.00
10014;BME280;45684;48.358;10.746;2023-02-12T11:12:47;98166.28;;;6.88;100.00
10014;BME280;45684;48.358;10.746;2023-02-12T11:15:19;98154.88;;;6.81;100.00
10014;BME280;45684;48.358;10.746;2023-02-12T11:17:55;98156.09;;;6.90;100.00
10014;BME280;45684;48.358;10.746;2023-02-12T11:20:26;98155.63;;;6.93;100.00
10014;BME280;45684;48.358;10.746;2023-02-12T11:22:57;98155.63;;;6.93;100.00
10014;BME280;45684;48.358;10.746;2023-02-12T11:25:28;98158.91;;;6.95;100.00
10014;BME280;45684;48.358;10.746;2023-02-12T11:28:03;98150.91;;;7.00;100.00
10014;BME280;45684;48.358;10.746;2023-02-12T11:30:33;98154.31;;;7.12;100.00
10014;BME280;45684;48.358;10.746;2023-02-12T11:33:24;98148.03;;;7.07;100.00
10014;BME280;45684;48.358;10.746;2023-02-12T11:35:53;98158.06;;;7.11;100.00
10014;BME280;45684;48.358;10.746;2023-02-12T11:38:27;98155.22;;;7.01;100.00
10014;BME280;45684;48.358;10.746;2023-02-12T11:40:59;98166.06;;;7.06;100.00
10014;BME280;45684;48.358;10.746;2023-02-12T11:43:29;98160.22;;;7.09;100.00
10014;BME280;45684;48.358;10.746;2023-02-12T11:45:59;98160.75;;;7.11;100.00
10014;BME280;45684;48.358;10.746;2023-02-12T11:48:32;98157.09;;;7.18;100.00
10014;BME280;45684;48.358;10.746;2023-02-12T11:51:18;98152.69;;;7.11;100.00
10014;BME280;45684;48.358;10.746;2023-02-12T11:53:51;98148.19;;;7.17;100.00
10014;BME280;45684;48.358;10.746;2023-02-12T11:56:20;98150.16;;;7.22;100.00
10014;BME280;45684;48.358;10.746;2023-02-12T11:58:49;98161.50;;;7.24;100.00
10014;BME280;45684;48.358;10.746;2023-02-12T12:01:23;98151.78;;;7.23;100.00
10014;BME280;45684;48.358;10.746;2023-02-12T12:03:58;98153.19;;;7.25;100.00
10014;BME280;45684;48.358;10.746;2023-02-12T12:06:33;98147.31;;;7.28;100.00
10014;BME280;45684;48.358;10.746;2023-02-12T12:09:06;98150.81;;;7.29;100.00
10014;BME280;45684;48.358;10.746;2023-02-12T12:11:50;98136.78;;;7.27;100.00
10014;BME280;45684;48.358;10.746;2023-02-12T12:14:26;98143.22;;;7.26;100.00
10014;BME280;45684;48.358;10.746;2023-02-12T12:17:15;98137.91;;;7.31;100.00
10014;BME280;45684;48.358;10.746;2023-02-12T12:20:08;98125.59;;;7.35;100.00
10014;BME280;45684;48.358;10.746;2023-02-12T12:22:46;98128.44;;;7.45;100.00
10014;BME280;45684;48.358;10.746;2023-02-12T12:25:24;98129.66;;;7.54;100.00
10014;BME280;45684;48.358;10.746;2023-02-12T12:28:03;98119.59;;;7.66;100.00
10014;BME280;45684;48.358;10.746;2023-02-12T12:30:50;98135.06;;;7.76;100.00
10014;BME280;45684;48.358;10.746;2023-02-12T12:33:28;98127.31;;;7.80;100.00
10014;BME280;45684;48.358;10.746;2023-02-12T12:36:32;98121.88;;;7.75;100.00
10014;BME280;45684;48.358;10.746;2023-02-12T12:39:13;98120.59;;;7.82;100.00
10014;BME280;45684;48.358;10.746;2023-02-12T12:41:54;98119.91;;;7.92;100.00
10014;BME280;45684;48.358;10.746;2023-02-12T12:44:43;98116.94;;;7.88;100.00
10014;BME280;45684;48.358;10.746;2023-02-12T12:47:24;98111.97;;;7.80;100.00
10014;BME280;45684;48.358;10.746;2023-02-12T12:49:59;98116.78;;;8.00;100.00
10014;BME280;45684;48.358;10.746;2023-02-12T12:52:44;98107.63;;;8.01;100.00
10014;BME280;45684;48.358;10.746;2023-02-12T12:55:40;98108.72;;;8.00;100.00
10014;BME280;45684;48.358;10.746;2023-02-12T12:58:19;98105.41;;;7.93;100.00
10014;BME280;45684;48.358;10.746;2023-02-12T13:01:00;98099.19;;;7.92;100.00
10014;BME280;45684;48.358;10.746;2023-02-12T13:03:50;98098.63;;;7.90;100.00
10014;BME280;45684;48.358;10.746;2023-02-12T13:12:34;98096.09;;;8.28;100.00
10014;BME280;45684;48.358;10.746;2023-02-12T13:15:18;98094.66;;;8.42;100.00
10014;BME280;45684;48.358;10.746;2023-02-12T13:17:52;98106.19;;;8.64;100.00
10014;BME280;45684;48.358;10.746;2023-02-12T13:20:34;98096.88;;;8.77;100.00
10014;BME280;45684;48.358;10.746;2023-02-12T13:23:19;98099.84;;;8.81;100.00
10014;BME280;45684;48.358;10.746;2023-02-12T13:25:56;98101.69;;;8.75;100.00
10014;BME280;45684;48.358;10.746;2023-02-12T13:28:32;98103.31;;;8.76;100.00
10014;BME280;45684;48.358;10.746;2023-02-12T13:31:06;98105.22;;;8.76;100.00
10014;BME280;45684;48.358;10.746;2023-02-12T13:33:59;98103.84;;;8.73;100.00
10014;BME280;45684;48.358;10.746;2023-02-12T13:36:29;98098.19;;;8.75;100.00
10014;BME280;45684;48.358;10.746;2023-02-12T13:39:05;98100.00;;;8.96;100.00
10014;BME280;45684;48.358;10.746;2023-02-12T13:41:35;98093.25;;;8.99;100.00
10014;BME280;45684;48.358;10.746;2023-02-12T13:44:09;98104.25;;;8.87;100.00
10014;BME280;45684;48.358;10.746;2023-02-12T13:46:49;98102.78;;;8.74;100.00
10014;BME280;45684;48.358;10.746;2023-02-12T13:49:26;98092.72;;;8.64;100.00
10014;BME280;45684;48.358;10.746;2023-02-12T13:52:04;98094.56;;;8.59;100.00
10014;BME280;45684;48.358;10.746;2023-02-12T13:54:51;98082.59;;;8.50;100.00
10014;BME280;45684;48.358;10.746;2023-02-12T13:57:21;98088.44;;;8.68;100.00
10014;BME280;45684;48.358;10.746;2023-02-12T13:59:50;98081.19;;;8.74;100.00
10014;BME280;45684;48.358;10.746;2023-02-12T14:05:23;98087.34;;;8.69;100.00
10014;BME280;45684;48.358;10.746;2023-02-12T14:07:54;98087.34;;;8.69;100.00
10014;BME280;45684;48.358;10.746;2023-02-12T14:10:27;98085.09;;;8.88;100.00
10014;BME280;45684;48.358;10.746;2023-02-12T14:13:08;98089.78;;;8.71;100.00
10014;BME280;45684;48.358;10.746;2023-02-12T14:15:40;98082.06;;;8.80;100.00
10014;BME280;45684;48.358;10.746;2023-02-12T14:18:28;98082.06;;;8.80;100.00
10014;BME280;45684;48.358;10.746;2023-02-12T14:27:40;98085.34;;;8.55;100.00
10014;BME280;45684;48.358;10.746;2023-02-12T14:30:23;98087.56;;;8.36;100.00
10014;BME280;45684;48.358;10.746;2023-02-12T14:33:25;98079.91;;;8.28;100.00
10014;BME280;45684;48.358;10.746;2023-02-12T14:36:14;98080.88;;;8.16;100.00
10014;BME280;45684;48.358;10.746;2023-02-12T14:39:02;98080.91;;;7.95;100.00
10014;BME280;45684;48.358;10.746;2023-02-12T14:41:36;98076.47;;;7.83;100.00
10014;BME280;45684;48.358;10.746;2023-02-12T14:44:42;98076.91;;;7.75;100.00
10014;BME280;45684;48.358;10.746;2023-02-12T14:50:16;98077.34;;;7.89;100.00
10014;BME280;45684;48.358;10.746;2023-02-12T14:52:58;98076.22;;;7.85;100.00
10014;BME280;45684;48.358;10.746;2023-02-12T14:55:34;98071.50;;;7.75;100.00
10014;BME280;45684;48.358;10.746;2023-02-12T14:58:13;98075.19;;;7.69;100.00
10014;BME280;45684;48.358;10.746;2023-02-12T15:00:51;98066.44;;;7.57;100.00
10014;BME280;45684;48.358;10.746;2023-02-12T15:03:31;98065.03;;;7.54;100.00
10014;BME280;45684;48.358;10.746;2023-02-12T15:06:06;98064.41;;;7.47;100.00
10014;BME280;45684;48.358;10.746;2023-02-12T15:08:43;98060.53;;;7.38;100.00
10014;BME280;45684;48.358;10.746;2023-02-12T15:11:20;98051.75;;;7.26;100.00
10014;BME280;45684;48.358;10.746;2023-02-12T15:13:53;98056.13;;;7.32;100.00
10014;BME280;45684;48.358;10.746;2023-02-12T15:16:32;98052.22;;;7.23;100.00
10014;BME280;45684;48.358;10.746;2023-02-12T15:19:17;98043.47;;;7.10;100.00
10014;BME280;45684;48.358;10.746;2023-02-12T15:21:50;98041.31;;;7.12;100.00
10014;BME280;45684;48.358;10.746;2023-02-12T15:24:22;98041.50;;;7.06;100.00
10014;BME280;45684;48.358;10.746;2023-02-12T15:26:51;98037.50;;;7.08;100.00
10014;BME280;45684;48.358;10.746;2023-02-12T15:29:22;98036.47;;;6.93;100.00
10014;BME280;45684;48.358;10.746;2023-02-12T15:31:55;98033.03;;;6.97;100.00
10014;BME280;45684;48.358;10.746;2023-02-12T15:34:27;98034.50;;;6.88;100.00
10014;BME280;45684;48.358;10.746;2023-02-12T15:36:58;98029.00;;;6.78;100.00
10014;BME280;45684;48.358;10.746;2023-02-12T15:39:32;98035.91;;;6.74;100.00
10014;BME280;45684;48.358;10.746;2023-02-12T15:42:23;98036.97;;;6.56;100.00
10014;BME280;45684;48.358;10.746;2023-02-12T15:45:00;98037.13;;;6.49;100.00
10014;BME280;45684;48.358;10.746;2023-02-12T15:47:30;98030.59;;;6.45;100.00
10014;BME280;45684;48.358;10.746;2023-02-12T15:50:10;98035.22;;;6.33;100.00
10014;BME280;45684;48.358;10.746;2023-02-12T15:52:45;98033.34;;;6.17;100.00
10014;BME280;45684;48.358;10.746;2023-02-12T15:55:16;98036.97;;;6.10;100.00
10014;BME280;45684;48.358;10.746;2023-02-12T15:57:48;98027.03;;;5.94;100.00
10014;BME280;45684;48.358;10.746;2023-02-12T16:00:27;98033.78;;;5.85;100.00
10014;BME280;45684;48.358;10.746;2023-02-12T16:02:57;98038.00;;;5.81;100.00
10014;BME280;45684;48.358;10.746;2023-02-12T16:05:25;98034.59;;;5.85;100.00
10014;BME280;45684;48.358;10.746;2023-02-12T16:07:53;98034.75;;;5.79;100.00
10014;BME280;45684;48.358;10.746;2023-02-12T16:10:22;98037.22;;;5.69;100.00
10014;BME280;45684;48.358;10.746;2023-02-12T16:12:50;98035.50;;;5.62;100.00
10014;BME280;45684;48.358;10.746;2023-02-12T16:15:27;98039.03;;;5.51;100.00
10014;BME280;45684;48.358;10.746;2023-02-12T16:17:58;98042.78;;;5.38;100.00
10014;BME280;45684;48.358;10.746;2023-02-12T16:20:30;98050.97;;;5.32;100.00
10014;BME280;45684;48.358;10.746;2023-02-12T16:22:58;98045.47;;;5.27;100.00
10014;BME280;45684;48.358;10.746;2023-02-12T16:25:32;98050.63;;;5.17;100.00
10014;BME280;45684;48.358;10.746;2023-02-12T16:28:02;98045.97;;;5.12;100.00
10014;BME280;45684;48.358;10.746;2023-02-12T16:30:32;98050.41;;;5.06;100.00
10014;BME280;45684;48.358;10.746;2023-02-12T16:33:01;98060.09;;;4.96;100.00
10014;BME280;45684;48.358;10.746;2023-02-12T16:35:31;98047.84;;;4.88;100.00
10014;BME280;45684;48.358;10.746;2023-02-12T16:38:01;98064.84;;;4.82;100.00
10014;BME280;45684;48.358;10.746;2023-02-12T16:40:33;98054.72;;;4.72;100.00
10014;BME280;45684;48.358;10.746;2023-02-12T16:43:23;98054.91;;;4.71;100.00
10014;BME280;45684;48.358;10.746;2023-02-12T16:46:01;98057.34;;;4.60;100.00
10014;BME280;45684;48.358;10.746;2023-02-12T16:48:36;98066.22;;;4.49;100.00
10014;BME280;45684;48.358;10.746;2023-02-12T16:51:04;98063.16;;;4.46;100.00
10014;BME280;45684;48.358;10.746;2023-02-12T16:53:38;98061.63;;;4.38;100.00
10014;BME280;45684;48.358;10.746;2023-02-12T16:56:13;98073.25;;;4.32;100.00
10014;BME280;45684;48.358;10.746;2023-02-12T16:58:45;98071.25;;;4.16;100.00
10014;BME280;45684;48.358;10.746;2023-02-12T17:01:17;98068.56;;;4.16;100.00
10014;BME280;45684;48.358;10.746;2023-02-12T17:03:47;98067.69;;;4.03;100.00
10014;BME280;45684;48.358;10.746;2023-02-12T17:06:18;98068.19;;;4.12;100.00
10014;BME280;45684;48.358;10.746;2023-02-12T17:08:46;98064.44;;;4.01;100.00
10014;BME280;45684;48.358;10.746;2023-02-12T17:11:13;98065.13;;;3.97;100.00
10014;BME280;45684;48.358;10.746;2023-02-12T17:13:43;98063.69;;;3.94;100.00
10014;BME280;45684;48.358;10.746;2023-02-12T17:16:12;98063.69;;;3.94;100.00
10014;BME280;45684;48.358;10.746;2023-02-12T17:18:55;98064.63;;;3.88;100.00
10014;BME280;45684;48.358;10.746;2023-02-12T17:21:24;98068.53;;;3.86;100.00
10014;BME280;45684;48.358;10.746;2023-02-12T17:23:53;98070.03;;;3.81;100.00
10014;BME280;45684;48.358;10.746;2023-02-12T17:26:21;98072.38;;;3.78;100.00
10014;BME280;45684;48.358;10.746;2023-02-12T17:28:49;98058.81;;;3.73;100.00
10014;BME280;45684;48.358;10.746;2023-02-12T17:31:17;98067.47;;;3.75;100.00
10014;BME280;45684;48.358;10.746;2023-02-12T17:33:46;98062.53;;;3.72;100.00
10014;BME280;45684;48.358;10.746;2023-02-12T17:36:15;98067.91;;;3.72;100.00
10014;BME280;45684;48.358;10.746;2023-02-12T17:38:43;98072.88;;;3.68;100.00
10014;BME280;45684;48.358;10.746;2023-02-12T17:41:11;98073.09;;;3.67;100.00
10014;BME280;45684;48.358;10.746;2023-02-12T17:43:38;98082.41;;;3.64;100.00
10014;BME280;45684;48.358;10.746;2023-02-12T17:46:08;98086.34;;;3.62;100.00
10014;BME280;45684;48.358;10.746;2023-02-12T17:48:39;98083.50;;;3.56;100.00
10014;BME280;45684;48.358;10.746;2023-02-12T17:51:08;98078.59;;;3.53;100.00
10014;BME280;45684;48.358;10.746;2023-02-12T17:53:38;98074.16;;;3.47;100.00
10014;BME280;45684;48.358;10.746;2023-02-12T17:56:09;98073.41;;;3.40;100.00
10014;BME280;45684;48.358;10.746;2023-02-12T17:58:37;98074.31;;;3.34;100.00
10014;BME280;45684;48.358;10.746;2023-02-12T18:01:08;98079.50;;;3.29;100.00
10014;BME280;45684;48.358;10.746;2023-02-12T18:03:38;98075.63;;;3.25;100.00
10014;BME280;45684;48.358;10.746;2023-02-12T18:06:07;98077.72;;;3.23;100.00
10014;BME280;45684;48.358;10.746;2023-02-12T18:08:37;98072.00;;;3.19;100.00
10014;BME280;45684;48.358;10.746;2023-02-12T18:11:07;98074.09;;;3.17;100.00
10014;BME280;45684;48.358;10.746;2023-02-12T18:13:36;98063.69;;;3.09;100.00
10014;BME280;45684;48.358;10.746;2023-02-12T18:16:05;98068.41;;;3.07;100.00
10014;BME280;45684;48.358;10.746;2023-02-12T18:18:33;98076.66;;;3.05;100.00
10014;BME280;45684;48.358;10.746;2023-02-12T18:21:05;98069.88;;;3.03;100.00
10014;BME280;45684;48.358;10.746;2023-02-12T18:23:33;98062.91;;;3.02;100.00
10014;BME280;45684;48.358;10.746;2023-02-12T18:26:05;98067.06;;;2.98;100.00
10014;BME280;45684;48.358;10.746;2023-02-12T18:28:34;98063.41;;;2.92;100.00
10014;BME280;45684;48.358;10.746;2023-02-12T18:31:04;98067.56;;;2.88;100.00
10014;BME280;45684;48.358;10.746;2023-02-12T18:33:32;98066.59;;;2.83;100.00
10014;BME280;45684;48.358;10.746;2023-02-12T18:36:02;98063.09;;;2.82;100.00
10014;BME280;45684;48.358;10.746;2023-02-12T18:38:31;98058.41;;;2.77;100.00
10014;BME280;45684;48.358;10.746;2023-02-12T18:40:59;98053.88;;;2.78;100.00
10014;BME280;45684;48.358;10.746;2023-02-12T18:43:32;98058.56;;;2.83;100.00
10014;BME280;45684;48.358;10.746;2023-02-12T18:46:05;98052.81;;;2.86;100.00
10014;BME280;45684;48.358;10.746;2023-02-12T18:48:33;98049.47;;;2.90;100.00
10014;BME280;45684;48.358;10.746;2023-02-12T18:51:02;98041.66;;;2.89;100.00
10014;BME280;45684;48.358;10.746;2023-02-12T18:53:30;98043.22;;;2.96;100.00
10014;BME280;45684;48.358;10.746;2023-02-12T18:56:02;98044.03;;;2.97;100.00
10014;BME280;45684;48.358;10.746;2023-02-12T18:58:30;98043.38;;;3.01;100.00
10014;BME280;45684;48.358;10.746;2023-02-12T19:00:59;98045.16;;;3.07;100.00
10014;BME280;45684;48.358;10.746;2023-02-12T19:03:27;98055.03;;;3.07;100.00
10014;BME280;45684;48.358;10.746;2023-02-12T19:06:01;98044.72;;;3.11;100.00
10014;BME280;45684;48.358;10.746;2023-02-12T19:08:29;98046.16;;;3.13;100.00
10014;BME280;45684;48.358;10.746;2023-02-12T19:10:57;98044.06;;;3.15;100.00
10014;BME280;45684;48.358;10.746;2023-02-12T19:13:25;98046.81;;;3.09;100.00
10014;BME280;45684;48.358;10.746;2023-02-12T19:15:53;98048.88;;;3.06;100.00
10014;BME280;45684;48.358;10.746;2023-02-12T19:18:22;98056.91;;;3.06;100.00
10014;BME280;45684;48.358;10.746;2023-02-12T19:20:50;98049.69;;;3.07;100.00
10014;BME280;45684;48.358;10.746;2023-02-12T19:23:18;98052.38;;;3.07;100.00
10014;BME280;45684;48.358;10.746;2023-02-12T19:25:49;98056.47;;;3.10;100.00
10014;BME280;45684;48.358;10.746;2023-02-12T19:28:17;98058.91;;;3.11;100.00
10014;BME280;45684;48.358;10.746;2023-02-12T19:30:45;98056.09;;;3.06;100.00
10014;BME280;45684;48.358;10.746;2023-02-12T19:33:15;98044.44;;;3.00;100.00
10014;BME280;45684;48.358;10.746;2023-02-12T19:35:51;98056.06;;;2.88;100.00
10014;BME280;45684;48.358;10.746;2023-02-12T19:38:21;98063.09;;;2.82;100.00
10014;BME280;45684;48.358;10.746;2023-02-12T19:40:49;98058.34;;;2.84;100.00
10014;BME280;45684;48.358;10.746;2023-02-12T19:43:17;98060.28;;;2.77;100.00
10014;BME280;45684;48.358;10.746;2023-02-12T19:45:46;98062.63;;;2.67;100.00
10014;BME280;45684;48.358;10.746;2023-02-12T19:48:15;98067.41;;;2.58;100.00
10014;BME280;45684;48.358;10.746;2023-02-12T19:50:44;98061.28;;;2.51;100.00
10014;BME280;45684;48.358;10.746;2023-02-12T19:53:13;98060.94;;;2.47;100.00
10014;BME280;45684;48.358;10.746;2023-02-12T19:55:41;98072.44;;;2.48;100.00
10014;BME280;45684;48.358;10.746;2023-02-12T19:58:09;98070.13;;;2.51;100.00
10014;BME280;45684;48.358;10.746;2023-02-12T20:00:36;98066.78;;;2.56;100.00
10014;BME280;45684;48.358;10.746;2023-02-12T20:03:04;98062.31;;;2.57;100.00
10014;BME280;45684;48.358;10.746;2023-02-12T20:05:39;98059.81;;;2.55;100.00
10014;BME280;45684;48.358;10.746;2023-02-12T20:08:17;98057.31;;;2.60;100.00
10014;BME280;45684;48.358;10.746;2023-02-12T20:10:46;98062.00;;;2.65;100.00
10014;BME280;45684;48.358;10.746;2023-02-12T20:13:14;98059.41;;;2.58;100.00
10014;BME280;45684;48.358;10.746;2023-02-12T20:15:44;98062.75;;;2.47;100.00
10014;BME280;45684;48.358;10.746;2023-02-12T20:18:12;98064.63;;;2.46;100.00
10014;BME280;45684;48.358;10.746;2023-02-12T20:20:40;98067.91;;;2.48;100.00
10014;BME280;45684;48.358;10.746;2023-02-12T20:23:07;98065.63;;;2.52;100.00
10014;BME280;45684;48.358;10.746;2023-02-12T20:25:42;98075.09;;;2.48;100.00
10014;BME280;45684;48.358;10.746;2023-02-12T20:28:11;98059.09;;;2.48;100.00
10014;BME280;45684;48.358;10.746;2023-02-12T20:30:42;98061.78;;;2.41;100.00
10014;BME280;45684;48.358;10.746;2023-02-12T20:33:12;98070.25;;;2.38;100.00
10014;BME280;45684;48.358;10.746;2023-02-12T20:35:44;98061.63;;;2.36;100.00
10014;BME280;45684;48.358;10.746;2023-02-12T20:38:14;98063.69;;;2.34;100.00
10014;BME280;45684;48.358;10.746;2023-02-12T20:40:43;98069.22;;;2.33;100.00
10014;BME280;45684;48.358;10.746;2023-02-12T20:43:11;98067.84;;;2.30;100.00
10014;BME280;45684;48.358;10.746;2023-02-12T20:45:38;98070.72;;;2.28;100.00
10014;BME280;45684;48.358;10.746;2023-02-12T20:48:06;98077.88;;;2.28;100.00
10014;BME280;45684;48.358;10.746;2023-02-12T20:50:34;98077.25;;;2.33;100.00
10014;BME280;45684;48.358;10.746;2023-02-12T20:53:03;98078.53;;;2.23;100.00
10014;BME280;45684;48.358;10.746;2023-02-12T20:55:34;98073.41;;;2.22;100.00
10014;BME280;45684;48.358;10.746;2023-02-12T20:58:07;98073.25;;;2.17;100.00
10014;BME280;45684;48.358;10.746;2023-02-12T21:00:35;98073.25;;;2.17;100.00
10014;BME280;45684;48.358;10.746;2023-02-12T21:03:03;98087.22;;;2.12;100.00
10014;BME280;45684;48.358;10.746;2023-02-12T21:05:31;98082.28;;;2.16;100.00
10014;BME280;45684;48.358;10.746;2023-02-12T21:07:59;98079.63;;;2.16;100.00
10014;BME280;45684;48.358;10.746;2023-02-12T21:10:27;98083.13;;;2.10;100.00
10014;BME280;45684;48.358;10.746;2023-02-12T21:13:01;98079.22;;;2.12;100.00
10014;BME280;45684;48.358;10.746;2023-02-12T21:15:33;98085.63;;;2.04;100.00
10014;BME280;45684;48.358;10.746;2023-02-12T21:18:02;98081.38;;;1.97;100.00
10014;BME280;45684;48.358;10.746;2023-02-12T21:20:30;98088.56;;;1.96;100.00
10014;BME280;45684;48.358;10.746;2023-02-12T21:22:58;98086.25;;;2.00;100.00
10014;BME280;45684;48.358;10.746;2023-02-12T21:25:25;98095.31;;;1.99;100.00
10014;BME280;45684;48.358;10.746;2023-02-12T21:27:53;98090.19;;;1.97;100.00
10014;BME280;45684;48.358;10.746;2023-02-12T21:30:21;98093.09;;;1.96;100.00
10014;BME280;45684;48.358;10.746;2023-02-12T21:32:51;98096.41;;;1.91;100.00
10014;BME280;45684;48.358;10.746;2023-02-12T21:35:19;98091.88;;;1.85;100.00
10014;BME280;45684;48.358;10.746;2023-02-12T21:37:46;98096.81;;;1.82;100.00
10014;BME280;45684;48.358;10.746;2023-02-12T21:40:15;98089.03;;;1.80;100.00
10014;BME280;45684;48.358;10.746;2023-02-12T21:42:43;98096.44;;;1.78;100.00
10014;BME280;45684;48.358;10.746;2023-02-12T21:45:11;98096.44;;;1.78;100.00
10014;BME280;45684;48.358;10.746;2023-02-12T21:47:39;98092.56;;;1.74;100.00
10014;BME280;45684;48.358;10.746;2023-02-12T21:50:09;98087.88;;;1.69;100.00
10014;BME280;45684;48.358;10.746;2023-02-12T21:52:39;98087.88;;;1.63;100.00
10014;BME280;45684;48.358;10.746;2023-02-12T21:55:07;98086.88;;;1.64;100.00
10014;BME280;45684;48.358;10.746;2023-02-12T21:57:35;98092.03;;;1.59;100.00
10014;BME280;45684;48.358;10.746;2023-02-12T22:00:04;98101.66;;;1.60;100.00
10014;BME280;45684;48.358;10.746;2023-02-12T22:02:37;98099.44;;;1.50;100.00
10014;BME280;45684;48.358;10.746;2023-02-12T22:05:08;98096.16;;;1.41;100.00
10014;BME280;45684;48.358;10.746;2023-02-12T22:07:38;98103.16;;;1.29;100.00
10014;BME280;45684;48.358;10.746;2023-02-12T22:10:07;98110.16;;;1.23;100.00
10014;BME280;45684;48.358;10.746;2023-02-12T22:12:35;98109.34;;;1.10;100.00
10014;BME280;45684;48.358;10.746;2023-02-12T22:15:04;98104.25;;;1.08;100.00
10014;BME280;45684;48.358;10.746;2023-02-12T22:17:31;98106.50;;;1.05;100.00
10014;BME280;45684;48.358;10.746;2023-02-12T22:19:59;98098.69;;;0.96;100.00
10014;BME280;45684;48.358;10.746;2023-02-12T22:22:29;98103.84;;;0.98;100.00
10014;BME280;45684;48.358;10.746;2023-02-12T22:24:59;98104.03;;;0.96;100.00
10014;BME280;45684;48.358;10.746;2023-02-12T22:27:30;98101.59;;;0.95;100.00
10014;BME280;45684;48.358;10.746;2023-02-12T22:30:02;98100.97;;;0.93;100.00
10014;BME280;45684;48.358;10.746;2023-02-12T22:32:31;98108.13;;;0.92;100.00
10014;BME280;45684;48.358;10.746;2023-02-12T22:34:59;98103.63;;;0.86;100.00
10014;BME280;45684;48.358;10.746;2023-02-12T22:37:28;98101.19;;;0.85;100.00
10014;BME280;45684;48.358;10.746;2023-02-12T22:39:56;98104.44;;;0.73;100.00
10014;BME280;45684;48.358;10.746;2023-02-12T22:42:24;98104.03;;;0.70;100.00
10014;BME280;45684;48.358;10.746;2023-02-12T22:44:52;98113.69;;;0.58;100.00
10014;BME280;45684;48.358;10.746;2023-02-12T22:47:21;98114.06;;;0.55;100.00
10014;BME280;45684;48.358;10.746;2023-02-12T22:49:49;98110.81;;;0.53;100.00
10014;BME280;45684;48.358;10.746;2023-02-12T22:52:17;98106.50;;;0.45;100.00
10014;BME280;45684;48.358;10.746;2023-02-12T22:54:46;98112.84;;;0.44;100.00
10014;BME280;45684;48.358;10.746;2023-02-12T22:57:15;98119.16;;;0.36;100.00
10014;BME280;45684;48.358;10.746;2023-02-12T22:59:42;98113.03;;;0.36;100.00
10014;BME280;45684;48.358;10.746;2023-02-12T23:02:10;98108.53;;;0.36;100.00
10014;BME280;45684;48.358;10.746;2023-02-12T23:04:38;98120.81;;;0.37;100.00
10014;BME280;45684;48.358;10.746;2023-02-12T23:07:06;98118.34;;;0.36;100.00
10014;BME280;45684;48.358;10.746;2023-02-12T23:09:34;98120.81;;;0.37;100.00
10014;BME280;45684;48.358;10.746;2023-02-12T23:12:04;98114.06;;;0.35;100.00
10014;BME280;45684;48.358;10.746;2023-02-12T23:14:34;98125.91;;;0.32;100.00
10014;BME280;45684;48.358;10.746;2023-02-12T23:17:02;98122.03;;;0.28;100.00
10014;BME280;45684;48.358;10.746;2023-02-12T23:19:30;98119.16;;;0.30;100.00